createdAt,value
2023-01-15T00:00:22.268Z,0.00
2023-01-15T00:01:22.287Z,0.00
2023-01-15T00:02:22.295Z,0.00
2023-01-15T00:03:22.274Z,0.00
2023-01-15T00:04:22.229Z,0.00
2023-01-15T00:05:22.235Z,0.00
2023-01-15T00:06:22.225Z,0.00
2023-01-15T00:07:22.223Z,0.00
2023-01-15T00:08:22.192Z,0.00
2023-01-15T00:09:22.195Z,0.00
2023-01-15T00:10:22.202Z,0.00
2023-01-15T00:11:22.213Z,0.00
2023-01-15T00:12:22.216Z,0.00
2023-01-15T00:13:22.157Z,0.00
2023-01-15T00:14:22.176Z,0.00
2023-01-15T00:15:22.151Z,0.00
2023-01-15T00:16:22.195Z,0.00
2023-01-15T00:17:22.141Z,0.00
2023-01-15T00:18:22.135Z,0.00
2023-01-15T00:19:22.123Z,0.00
2023-01-15T00:20:22.115Z,0.00
2023-01-15T00:21:22.132Z,0.00
2023-01-15T00:22:22.110Z,0.00
2023-01-15T00:23:22.097Z,0.00
2023-01-15T00:24:22.102Z,0.00
2023-01-15T00:25:22.073Z,0.00
2023-01-15T00:26:22.086Z,0.00
2023-01-15T00:27:22.086Z,0.00
2023-01-15T00:28:22.067Z,0.00
2023-01-15T00:29:22.056Z,0.00
2023-01-15T00:30:22.055Z,0.00
2023-01-15T00:31:22.106Z,0.00
2023-01-15T00:32:22.046Z,0.00
2023-01-15T00:33:22.029Z,0.00
2023-01-15T00:34:22.030Z,0.00
2023-01-15T00:35:22.026Z,0.00
2023-01-15T00:36:22.008Z,0.00
2023-01-15T00:37:22.036Z,0.00
2023-01-15T00:38:21.975Z,0.00
2023-01-15T00:39:22.987Z,0.00
2023-01-15T00:40:21.967Z,0.00
2023-01-15T00:41:22.970Z,0.00
2023-01-15T00:42:21.990Z,0.00
2023-01-15T00:43:21.969Z,0.00
2023-01-15T00:44:21.960Z,0.00
2023-01-15T00:45:21.952Z,0.00
2023-01-15T00:46:21.989Z,0.00
2023-01-15T00:47:21.941Z,0.00
2023-01-15T00:48:21.929Z,0.00
2023-01-15T00:49:21.912Z,0.00
2023-01-15T00:50:21.915Z,0.00
2023-01-15T00:51:21.912Z,0.00
2023-01-15T00:52:21.903Z,0.00
2023-01-15T00:53:21.907Z,0.00
2023-01-15T00:54:21.882Z,0.00
2023-01-15T00:55:21.884Z,0.00
2023-01-15T00:56:21.874Z,0.00
2023-01-15T00:57:21.860Z,0.00
2023-01-15T00:58:21.884Z,0.00
2023-01-15T00:59:21.863Z,0.00
2023-01-15T01:00:21.854Z,0.00
2023-01-15T01:01:21.988Z,0.00
2023-01-15T01:02:21.877Z,0.00
2023-01-15T01:03:21.832Z,0.00
2023-01-15T01:04:21.833Z,0.00
2023-01-15T01:05:21.809Z,0.00
2023-01-15T01:06:21.804Z,0.00
2023-01-15T01:07:21.803Z,0.00
2023-01-15T01:08:21.777Z,0.00
2023-01-15T01:09:21.810Z,0.00
2023-01-15T01:10:22.760Z,0.00
2023-01-15T01:11:21.757Z,0.00
2023-01-15T01:12:21.758Z,0.00
2023-01-15T01:13:21.753Z,0.00
2023-01-15T01:14:21.757Z,0.00
2023-01-15T01:15:21.738Z,0.00
2023-01-15T01:16:21.744Z,0.00
2023-01-15T01:17:21.731Z,0.00
2023-01-15T01:18:21.709Z,0.00
2023-01-15T01:19:21.729Z,0.00
2023-01-15T01:20:21.695Z,0.00
2023-01-15T01:21:21.690Z,0.00
2023-01-15T01:22:21.678Z,0.00
2023-01-15T01:23:21.678Z,0.00
2023-01-15T01:24:21.698Z,0.00
2023-01-15T01:25:21.692Z,0.00
2023-01-15T01:26:21.658Z,0.00
2023-01-15T01:27:21.647Z,0.00
2023-01-15T01:28:21.636Z,0.00
2023-01-15T01:29:21.647Z,0.00
2023-01-15T01:30:21.641Z,0.00
2023-01-15T01:31:21.708Z,0.00
2023-01-15T01:32:21.612Z,0.00
2023-01-15T01:33:21.607Z,0.00
2023-01-15T01:34:21.604Z,0.00
2023-01-15T01:35:21.616Z,0.00
2023-01-15T01:36:21.588Z,0.00
2023-01-15T01:37:21.583Z,0.00
2023-01-15T01:38:21.567Z,0.00
2023-01-15T01:39:21.576Z,0.00
2023-01-15T01:40:21.582Z,0.00
2023-01-15T01:41:21.551Z,0.00
2023-01-15T01:42:21.536Z,0.00
2023-01-15T01:43:21.535Z,0.00
2023-01-15T01:44:21.531Z,0.00
2023-01-15T01:45:21.551Z,0.00
2023-01-15T01:46:21.520Z,0.00
2023-01-15T01:47:21.520Z,0.00
2023-01-15T01:48:21.495Z,0.00
2023-01-15T01:49:21.499Z,0.00
2023-01-15T01:50:21.484Z,0.00
2023-01-15T01:51:21.501Z,0.00
2023-01-15T01:52:21.475Z,0.00
2023-01-15T01:53:21.458Z,0.00
2023-01-15T01:54:21.472Z,0.00
2023-01-15T01:55:21.455Z,0.00
2023-01-15T01:56:21.450Z,0.00
2023-01-15T01:57:21.435Z,0.00
2023-01-15T01:58:21.449Z,0.00
2023-01-15T01:59:21.441Z,0.00
2023-01-15T02:00:21.421Z,0.00
2023-01-15T02:01:21.431Z,0.00
2023-01-15T02:02:21.425Z,0.00
2023-01-15T02:03:21.399Z,0.00
2023-01-15T02:04:21.411Z,0.00
2023-01-15T02:05:21.384Z,0.00
2023-01-15T02:06:21.396Z,0.00
2023-01-15T02:07:21.378Z,0.00
2023-01-15T02:08:21.359Z,0.00
2023-01-15T02:09:21.359Z,0.00
2023-01-15T02:10:21.356Z,0.00
2023-01-15T02:11:21.339Z,0.00
2023-01-15T02:12:21.346Z,0.00
2023-01-15T02:13:21.327Z,0.00
2023-01-15T02:14:21.337Z,0.00
2023-01-15T02:15:21.346Z,0.00
2023-01-15T02:16:21.349Z,0.00
2023-01-15T02:17:21.299Z,0.00
2023-01-15T02:18:21.291Z,0.00
2023-01-15T02:19:21.304Z,0.00
2023-01-15T02:20:21.294Z,0.00
2023-01-15T02:21:21.277Z,0.00
2023-01-15T02:22:21.273Z,0.00
2023-01-15T02:23:21.262Z,0.00
2023-01-15T02:24:21.250Z,0.00
2023-01-15T02:25:21.262Z,0.00
2023-01-15T02:26:21.242Z,0.00
2023-01-15T02:27:21.240Z,0.00
2023-01-15T02:28:21.224Z,0.00
2023-01-15T02:29:21.229Z,0.00
2023-01-15T02:30:21.224Z,0.00
2023-01-15T02:31:21.267Z,0.00
2023-01-15T02:32:21.220Z,0.00
2023-01-15T02:33:21.198Z,0.00
2023-01-15T02:34:21.186Z,0.00
2023-01-15T02:35:21.173Z,0.00
2023-01-15T02:36:21.178Z,0.00
2023-01-15T02:37:21.186Z,0.00
2023-01-15T02:38:21.153Z,0.00
2023-01-15T02:39:21.142Z,0.00
2023-01-15T02:40:21.140Z,0.00
2023-01-15T02:41:21.155Z,0.00
2023-01-15T02:42:21.132Z,0.00
2023-01-15T02:43:21.124Z,0.00
2023-01-15T02:44:21.113Z,0.00
2023-01-15T02:45:21.107Z,0.00
2023-01-15T02:46:21.116Z,0.00
2023-01-15T02:47:21.097Z,0.00
2023-01-15T02:48:21.084Z,0.00
2023-01-15T02:49:21.084Z,0.00
2023-01-15T02:50:21.076Z,0.00
2023-01-15T02:51:21.059Z,0.00
2023-01-15T02:52:21.085Z,0.00
2023-01-15T02:53:21.055Z,0.00
2023-01-15T02:54:21.034Z,0.00
2023-01-15T02:55:21.039Z,0.00
2023-01-15T02:56:21.037Z,0.00
2023-01-15T02:57:21.029Z,0.00
2023-01-15T02:58:21.012Z,0.00
2023-01-15T02:59:21.027Z,0.00
2023-01-15T03:00:21.014Z,0.00
2023-01-15T03:01:21.079Z,0.00
2023-01-15T03:02:21.058Z,0.00
2023-01-15T03:03:20.988Z,0.00
2023-01-15T03:04:20.980Z,0.00
2023-01-15T03:05:20.980Z,0.00
2023-01-15T03:06:20.964Z,0.00
2023-01-15T03:07:20.980Z,0.00
2023-01-15T03:08:20.957Z,0.00
2023-01-15T03:09:20.950Z,0.00
2023-01-15T03:10:20.939Z,0.00
2023-01-15T03:11:20.960Z,0.00
2023-01-15T03:12:20.944Z,0.00
2023-01-15T03:13:21.034Z,0.00
2023-01-15T03:14:20.920Z,0.00
2023-01-15T03:15:20.903Z,0.00
2023-01-15T03:16:20.946Z,0.00
2023-01-15T03:17:20.903Z,0.00
2023-01-15T03:18:20.880Z,0.00
2023-01-15T03:19:20.883Z,0.00
2023-01-15T03:20:20.877Z,0.00
2023-01-15T03:21:20.872Z,0.00
2023-01-15T03:22:20.872Z,0.00
2023-01-15T03:23:20.851Z,0.00
2023-01-15T03:24:20.852Z,0.00
2023-01-15T03:25:20.849Z,0.00
2023-01-15T03:26:20.861Z,0.00
2023-01-15T03:27:20.825Z,0.00
2023-01-15T03:28:20.835Z,0.00
2023-01-15T03:29:20.831Z,0.00
2023-01-15T03:30:20.831Z,0.00
2023-01-15T03:31:20.784Z,0.00
2023-01-15T03:32:20.822Z,0.00
2023-01-15T03:33:20.783Z,0.00
2023-01-15T03:34:20.780Z,0.00
2023-01-15T03:35:20.762Z,0.00
2023-01-15T03:36:20.786Z,0.00
2023-01-15T03:37:20.767Z,0.00
2023-01-15T03:38:20.742Z,0.00
2023-01-15T03:39:20.751Z,0.00
2023-01-15T03:40:20.747Z,0.00
2023-01-15T03:41:20.732Z,0.00
2023-01-15T03:42:20.730Z,0.00
2023-01-15T03:43:20.701Z,0.00
2023-01-15T03:44:20.737Z,0.00
2023-01-15T03:45:20.702Z,0.00
2023-01-15T03:46:20.740Z,0.00
2023-01-15T03:47:20.679Z,0.00
2023-01-15T03:48:20.712Z,0.00
2023-01-15T03:49:20.673Z,0.00
2023-01-15T03:50:20.663Z,0.00
2023-01-15T03:51:20.662Z,0.00
2023-01-15T03:52:20.661Z,0.00
2023-01-15T03:53:20.651Z,0.00
2023-01-15T03:54:20.697Z,0.00
2023-01-15T03:55:20.663Z,0.00
2023-01-15T03:56:20.651Z,0.00
2023-01-15T03:57:20.626Z,0.00
2023-01-15T03:58:20.617Z,0.00
2023-01-15T03:59:20.614Z,0.00
2023-01-15T04:00:20.618Z,0.00
2023-01-15T04:01:20.704Z,0.00
2023-01-15T04:02:20.655Z,0.00
2023-01-15T04:03:20.593Z,0.00
2023-01-15T04:04:20.739Z,0.00
2023-01-15T04:05:20.566Z,0.00
2023-01-15T04:06:20.588Z,0.00
2023-01-15T04:07:20.589Z,0.00
2023-01-15T04:08:20.562Z,0.00
2023-01-15T04:09:20.544Z,0.00
2023-01-15T04:10:20.547Z,0.00
2023-01-15T04:11:20.538Z,0.00
2023-01-15T04:12:20.551Z,0.00
2023-01-15T04:13:20.531Z,0.00
2023-01-15T04:14:20.524Z,0.00
2023-01-15T04:15:20.539Z,0.00
2023-01-15T04:16:20.521Z,0.00
2023-01-15T04:17:20.516Z,0.00
2023-01-15T04:18:20.491Z,0.00
2023-01-15T04:19:20.488Z,0.00
2023-01-15T04:20:20.481Z,0.00
2023-01-15T04:21:20.488Z,0.00
2023-01-15T04:22:20.488Z,0.00
2023-01-15T04:23:20.459Z,0.00
2023-01-15T04:24:20.457Z,0.00
2023-01-15T04:25:20.447Z,0.00
2023-01-15T04:26:20.448Z,0.00
2023-01-15T04:27:20.438Z,0.00
2023-01-15T04:28:20.418Z,0.00
2023-01-15T04:29:21.426Z,0.00
2023-01-15T04:30:20.415Z,0.00
2023-01-15T04:31:20.498Z,0.00
2023-01-15T04:32:20.406Z,0.00
2023-01-15T04:33:20.399Z,0.00
2023-01-15T04:34:20.388Z,0.00
2023-01-15T04:35:20.390Z,0.00
2023-01-15T04:36:20.376Z,0.00
2023-01-15T04:37:20.385Z,0.00
2023-01-15T04:38:20.346Z,0.00
2023-01-15T04:39:20.375Z,0.00
2023-01-15T04:40:20.347Z,0.00
2023-01-15T04:41:20.399Z,0.00
2023-01-15T04:42:20.359Z,0.00
2023-01-15T04:43:20.333Z,0.00
2023-01-15T04:44:20.354Z,0.00
2023-01-15T04:45:20.324Z,0.00
2023-01-15T04:46:20.371Z,0.00
2023-01-15T04:47:20.289Z,0.00
2023-01-15T04:48:20.309Z,0.00
2023-01-15T04:49:20.289Z,0.00
2023-01-15T04:50:20.290Z,0.00
2023-01-15T04:51:20.280Z,0.00
2023-01-15T04:52:20.341Z,0.00
2023-01-15T04:53:20.266Z,0.00
2023-01-15T04:54:20.269Z,0.00
2023-01-15T04:55:20.271Z,0.00
2023-01-15T04:56:20.247Z,0.00
2023-01-15T04:57:20.243Z,0.00
2023-01-15T04:58:20.231Z,0.00
2023-01-15T04:59:20.226Z,0.00
2023-01-15T05:00:20.220Z,0.00
2023-01-15T05:01:20.321Z,0.00
2023-01-15T05:02:20.274Z,0.00
2023-01-15T05:03:20.230Z,0.00
2023-01-15T05:04:20.276Z,0.00
2023-01-15T05:05:20.195Z,0.00
2023-01-15T05:06:20.187Z,0.00
2023-01-15T05:07:20.175Z,0.00
2023-01-15T05:08:20.159Z,0.00
2023-01-15T05:09:20.177Z,0.00
2023-01-15T05:10:20.164Z,0.00
2023-01-15T05:11:20.144Z,0.00
2023-01-15T05:12:20.142Z,0.00
2023-01-15T05:13:20.146Z,0.00
2023-01-15T05:14:20.131Z,0.00
2023-01-15T05:15:20.135Z,0.00
2023-01-15T05:16:20.111Z,0.00
2023-01-15T05:17:20.114Z,0.00
2023-01-15T05:18:20.113Z,0.00
2023-01-15T05:19:20.097Z,0.00
2023-01-15T05:20:20.092Z,0.00
2023-01-15T05:21:20.090Z,0.00
2023-01-15T05:22:20.084Z,0.00
2023-01-15T05:23:20.067Z,0.00
2023-01-15T05:24:20.063Z,0.00
2023-01-15T05:25:20.064Z,0.00
2023-01-15T05:26:20.060Z,0.00
2023-01-15T05:27:20.072Z,0.00
2023-01-15T05:28:20.043Z,0.00
2023-01-15T05:29:20.042Z,0.00
2023-01-15T05:30:20.035Z,0.00
2023-01-15T05:31:20.106Z,0.00
2023-01-15T05:32:20.038Z,0.00
2023-01-15T05:33:19.998Z,0.00
2023-01-15T05:34:20.017Z,0.00
2023-01-15T05:35:19.999Z,0.00
2023-01-15T05:36:20.005Z,0.00
2023-01-15T05:37:20.000Z,0.00
2023-01-15T05:38:19.975Z,0.00
2023-01-15T05:39:19.983Z,0.00
2023-01-15T05:40:19.961Z,0.00
2023-01-15T05:41:19.958Z,0.00
2023-01-15T05:42:19.956Z,0.00
2023-01-15T05:43:19.937Z,0.00
2023-01-15T05:44:19.947Z,0.00
2023-01-15T05:45:19.940Z,0.00
2023-01-15T05:46:19.937Z,0.00
2023-01-15T05:47:19.933Z,0.00
2023-01-15T05:48:20.912Z,0.00
2023-01-15T05:49:19.890Z,0.00
2023-01-15T05:50:19.889Z,0.00
2023-01-15T05:51:20.924Z,0.00
2023-01-15T05:52:19.900Z,0.00
2023-01-15T05:53:19.887Z,0.00
2023-01-15T05:54:19.879Z,0.00
2023-01-15T05:55:19.859Z,0.00
2023-01-15T05:56:19.867Z,0.00
2023-01-15T05:57:19.855Z,0.00
2023-01-15T05:58:19.848Z,0.00
2023-01-15T05:59:19.847Z,0.00
2023-01-15T06:00:19.836Z,0.00
2023-01-15T06:01:19.851Z,0.00
2023-01-15T06:02:19.871Z,0.00
2023-01-15T06:03:19.834Z,0.00
2023-01-15T06:04:19.835Z,0.00
2023-01-15T06:05:19.803Z,0.00
2023-01-15T06:06:19.794Z,0.00
2023-01-15T06:07:19.796Z,0.00
2023-01-15T06:08:19.779Z,0.00
2023-01-15T06:09:19.782Z,0.00
2023-01-15T06:10:19.781Z,0.00
2023-01-15T06:11:19.759Z,0.00
2023-01-15T06:12:19.766Z,0.00
2023-01-15T06:13:19.767Z,0.00
2023-01-15T06:14:19.755Z,0.00
2023-01-15T06:15:19.766Z,0.00
2023-01-15T06:16:19.781Z,0.00
2023-01-15T06:17:19.719Z,0.00
2023-01-15T06:18:19.725Z,0.00
2023-01-15T06:19:19.721Z,0.00
2023-01-15T06:20:19.712Z,0.00
2023-01-15T06:21:19.692Z,0.00
2023-01-15T06:22:19.692Z,0.00
2023-01-15T06:23:19.696Z,0.00
2023-01-15T06:24:19.680Z,0.00
2023-01-15T06:25:19.667Z,0.00
2023-01-15T06:26:19.702Z,0.00
2023-01-15T06:27:19.667Z,0.00
2023-01-15T06:28:19.659Z,0.00
2023-01-15T06:29:19.675Z,0.00
2023-01-15T06:30:19.640Z,0.00
2023-01-15T06:31:19.687Z,0.00
2023-01-15T06:32:19.628Z,0.00
2023-01-15T06:33:19.624Z,0.00
2023-01-15T06:34:19.627Z,0.00
2023-01-15T06:35:19.603Z,0.00
2023-01-15T06:36:19.603Z,0.00
2023-01-15T06:37:19.605Z,0.00
2023-01-15T06:38:19.592Z,0.00
2023-01-15T06:39:19.575Z,0.00
2023-01-15T06:40:19.587Z,0.00
2023-01-15T06:41:19.559Z,0.00
2023-01-15T06:42:19.556Z,0.00
2023-01-15T06:43:19.555Z,0.00
2023-01-15T06:44:19.554Z,0.00
2023-01-15T06:45:19.568Z,0.00
2023-01-15T06:46:19.540Z,0.00
2023-01-15T06:47:19.537Z,0.00
2023-01-15T06:48:19.543Z,0.00
2023-01-15T06:49:19.514Z,0.00
2023-01-15T06:50:19.519Z,0.00
2023-01-15T06:51:19.518Z,0.00
2023-01-15T06:52:19.500Z,0.00
2023-01-15T06:53:19.489Z,0.00
2023-01-15T06:54:19.486Z,0.00
2023-01-15T06:55:19.476Z,0.00
2023-01-15T06:56:19.549Z,0.00
2023-01-15T06:57:19.468Z,0.00
2023-01-15T06:58:19.455Z,0.00
2023-01-15T06:59:19.451Z,0.00
2023-01-15T07:00:19.449Z,0.00
2023-01-15T07:01:19.573Z,0.00
2023-01-15T07:02:19.493Z,0.00
2023-01-15T07:03:19.430Z,0.00
2023-01-15T07:04:19.424Z,0.00
2023-01-15T07:05:19.420Z,0.00
2023-01-15T07:06:19.432Z,0.00
2023-01-15T07:07:19.402Z,0.00
2023-01-15T07:08:19.392Z,0.00
2023-01-15T07:09:19.417Z,0.00
2023-01-15T07:10:19.385Z,0.00
2023-01-15T07:11:19.385Z,0.00
2023-01-15T07:12:19.376Z,0.00
2023-01-15T07:13:19.349Z,0.00
2023-01-15T07:14:19.352Z,0.00
2023-01-15T07:15:19.328Z,0.00
2023-01-15T07:16:20.368Z,0.00
2023-01-15T07:17:19.349Z,0.00
2023-01-15T07:18:19.333Z,0.00
2023-01-15T07:19:19.319Z,0.00
2023-01-15T07:20:19.312Z,0.00
2023-01-15T07:21:19.308Z,0.00
2023-01-15T07:22:19.319Z,0.00
2023-01-15T07:23:19.305Z,0.00
2023-01-15T07:24:19.285Z,0.00
2023-01-15T07:25:19.281Z,0.00
2023-01-15T07:26:19.305Z,0.00
2023-01-15T07:27:19.327Z,0.00
2023-01-15T07:28:19.267Z,0.00
2023-01-15T07:29:19.262Z,0.00
2023-01-15T07:30:19.251Z,0.00
2023-01-15T07:31:19.305Z,0.00
2023-01-15T07:32:19.283Z,0.00
2023-01-15T07:33:19.273Z,0.00
2023-01-15T07:34:19.250Z,0.00
2023-01-15T07:35:19.223Z,0.00
2023-01-15T07:36:19.244Z,0.00
2023-01-15T07:37:19.306Z,0.00
2023-01-15T07:38:19.244Z,0.00
2023-01-15T07:39:19.288Z,5.62
2023-01-15T07:40:19.188Z,5.62
2023-01-15T07:41:19.196Z,5.62
2023-01-15T07:42:19.220Z,5.62
2023-01-15T07:43:19.205Z,5.62
2023-01-15T07:44:19.303Z,5.62
2023-01-15T07:45:19.155Z,5.62
2023-01-15T07:46:19.160Z,5.62
2023-01-15T07:47:19.213Z,5.62
2023-01-15T07:48:19.143Z,5.62
2023-01-15T07:49:19.126Z,5.62
2023-01-15T07:50:19.165Z,5.62
2023-01-15T07:51:19.117Z,5.62
2023-01-15T07:52:19.113Z,5.62
2023-01-15T07:53:19.095Z,5.62
2023-01-15T07:54:19.208Z,5.62
2023-01-15T07:55:19.082Z,5.62
2023-01-15T07:56:19.088Z,5.62
2023-01-15T07:57:19.059Z,11.25
2023-01-15T07:58:19.078Z,11.25
2023-01-15T07:59:19.054Z,11.25
2023-01-15T08:00:19.041Z,11.25
2023-01-15T08:01:19.219Z,11.25
2023-01-15T08:02:19.061Z,11.25
2023-01-15T08:03:19.032Z,11.25
2023-01-15T08:04:19.036Z,11.25
2023-01-15T08:05:19.028Z,11.25
2023-01-15T08:06:19.010Z,11.25
2023-01-15T08:07:19.040Z,11.25
2023-01-15T08:08:18.996Z,11.25
2023-01-15T08:09:18.993Z,11.25
2023-01-15T08:10:18.994Z,11.25
2023-01-15T08:11:18.984Z,11.25
2023-01-15T08:12:18.980Z,11.25
2023-01-15T08:13:18.971Z,11.25
2023-01-15T08:14:18.963Z,11.25
2023-01-15T08:15:18.940Z,11.25
2023-01-15T08:16:19.024Z,11.25
2023-01-15T08:17:18.955Z,11.25
2023-01-15T08:18:18.932Z,11.25
2023-01-15T08:19:18.926Z,11.25
2023-01-15T08:20:18.920Z,11.25
2023-01-15T08:21:18.911Z,11.25
2023-01-15T08:22:18.902Z,11.25
2023-01-15T08:23:18.915Z,11.25
2023-01-15T08:24:18.890Z,11.25
2023-01-15T08:25:18.871Z,11.25
2023-01-15T08:26:18.878Z,11.25
2023-01-15T08:27:18.963Z,16.88
2023-01-15T08:28:18.866Z,16.88
2023-01-15T08:29:18.870Z,16.88
2023-01-15T08:30:18.867Z,16.88
2023-01-15T08:31:18.893Z,16.88
2023-01-15T08:32:18.843Z,16.88
2023-01-15T08:33:18.830Z,16.88
2023-01-15T08:34:18.827Z,16.88
2023-01-15T08:35:18.812Z,16.88
2023-01-15T08:36:18.805Z,16.88
2023-01-15T08:37:18.823Z,16.88
2023-01-15T08:38:18.817Z,16.88
2023-01-15T08:39:18.825Z,16.88
2023-01-15T08:40:18.784Z,16.88
2023-01-15T08:41:18.784Z,16.88
2023-01-15T08:42:18.769Z,16.88
2023-01-15T08:43:18.883Z,16.88
2023-01-15T08:44:18.762Z,16.88
2023-01-15T08:45:18.768Z,22.50
2023-01-15T08:46:18.744Z,22.50
2023-01-15T08:47:19.741Z,22.50
2023-01-15T08:48:18.747Z,22.50
2023-01-15T08:49:18.731Z,22.50
2023-01-15T08:50:18.730Z,22.50
2023-01-15T08:51:18.719Z,22.50
2023-01-15T08:52:18.703Z,22.50
2023-01-15T08:53:18.712Z,28.12
2023-01-15T08:54:18.699Z,28.12
2023-01-15T08:55:18.687Z,28.12
2023-01-15T08:56:18.670Z,28.12
2023-01-15T08:57:18.672Z,28.12
2023-01-15T08:58:18.685Z,33.75
2023-01-15T08:59:18.658Z,33.75
2023-01-15T09:00:18.691Z,33.75
2023-01-15T09:01:18.780Z,33.75
2023-01-15T09:02:18.659Z,33.75
2023-01-15T09:03:18.642Z,33.75
2023-01-15T09:04:18.628Z,33.75
2023-01-15T09:05:18.628Z,33.75
2023-01-15T09:06:18.609Z,33.75
2023-01-15T09:07:18.632Z,33.75
2023-01-15T09:08:20.313Z,33.75
2023-01-15T09:09:18.602Z,33.75
2023-01-15T09:10:18.615Z,33.75
2023-01-15T09:11:18.764Z,33.75
2023-01-15T09:12:18.585Z,33.75
2023-01-15T09:13:18.575Z,33.75
2023-01-15T09:14:57.820Z,33.75
2023-01-15T09:15:19.564Z,33.75
2023-01-15T09:16:18.581Z,33.75
2023-01-15T09:17:18.546Z,33.75
2023-01-15T09:18:18.542Z,33.75
2023-01-15T09:19:18.550Z,33.75
2023-01-15T09:20:18.525Z,33.75
2023-01-15T09:21:18.542Z,33.75
2023-01-15T09:22:18.514Z,33.75
2023-01-15T09:23:18.556Z,39.38
2023-01-15T09:24:18.514Z,39.38
2023-01-15T09:25:18.558Z,33.75
2023-01-15T09:26:18.518Z,33.75
2023-01-15T09:27:18.490Z,39.38
2023-01-15T09:28:18.506Z,39.38
2023-01-15T09:29:18.468Z,39.38
2023-01-15T09:30:18.471Z,39.38
2023-01-15T09:31:18.455Z,39.38
2023-01-15T09:32:18.449Z,39.38
2023-01-15T09:33:18.446Z,39.38
2023-01-15T09:34:18.437Z,39.38
2023-01-15T09:35:18.442Z,39.38
2023-01-15T09:36:18.418Z,39.38
2023-01-15T09:37:18.419Z,45.00
2023-01-15T09:38:18.414Z,45.00
2023-01-15T09:39:18.408Z,45.00
2023-01-15T09:40:18.436Z,50.62
2023-01-15T09:41:18.389Z,50.62
2023-01-15T09:42:18.532Z,50.62
2023-01-15T09:43:18.381Z,50.62
2023-01-15T09:44:18.367Z,50.62
2023-01-15T09:45:18.376Z,45.00
2023-01-15T09:46:18.387Z,45.00
2023-01-15T09:47:18.345Z,45.00
2023-01-15T09:48:18.459Z,45.00
2023-01-15T09:49:18.337Z,45.00
2023-01-15T09:50:18.366Z,50.62
2023-01-15T09:51:18.318Z,50.62
2023-01-15T09:52:18.334Z,50.62
2023-01-15T09:53:18.320Z,45.00
2023-01-15T09:54:18.370Z,45.00
2023-01-15T09:55:18.455Z,45.00
2023-01-15T09:56:18.289Z,45.00
2023-01-15T09:57:18.288Z,45.00
2023-01-15T09:58:18.286Z,45.00
2023-01-15T09:59:18.270Z,45.00
2023-01-15T10:00:18.272Z,50.62
2023-01-15T10:01:18.335Z,50.62
2023-01-15T10:02:18.247Z,50.62
2023-01-15T10:03:18.301Z,50.62
2023-01-15T10:04:18.309Z,50.62
2023-01-15T10:05:18.239Z,56.25
2023-01-15T10:06:18.262Z,61.88
2023-01-15T10:07:18.273Z,67.50
2023-01-15T10:08:18.214Z,73.12
2023-01-15T10:09:18.222Z,73.12
2023-01-15T10:10:18.444Z,73.12
2023-01-15T10:11:19.202Z,78.75
2023-01-15T10:12:18.188Z,78.75
2023-01-15T10:13:18.206Z,78.75
2023-01-15T10:14:18.173Z,78.75
2023-01-15T10:15:18.166Z,84.38
2023-01-15T10:16:18.243Z,90.00
2023-01-15T10:17:18.165Z,90.00
2023-01-15T10:18:18.167Z,95.62
2023-01-15T10:19:18.149Z,95.62
2023-01-15T10:20:18.147Z,101.25
2023-01-15T10:21:18.129Z,106.88
2023-01-15T10:22:18.115Z,112.50
2023-01-15T10:23:18.109Z,118.12
2023-01-15T10:24:18.122Z,118.12
2023-01-15T10:25:18.110Z,123.75
2023-01-15T10:26:18.097Z,123.75
2023-01-15T10:27:18.082Z,123.75
2023-01-15T10:28:18.291Z,123.75
2023-01-15T10:29:19.093Z,123.75
2023-01-15T10:30:18.073Z,129.38
2023-01-15T10:31:18.080Z,129.38
2023-01-15T10:32:18.054Z,129.38
2023-01-15T10:33:18.050Z,135.00
2023-01-15T10:34:18.037Z,135.00
2023-01-15T10:35:18.023Z,129.38
2023-01-15T10:36:18.026Z,123.75
2023-01-15T10:37:18.034Z,123.75
2023-01-15T10:38:18.004Z,118.12
2023-01-15T10:39:19.467Z,112.50
2023-01-15T10:40:18.084Z,112.50
2023-01-15T10:41:17.990Z,106.88
2023-01-15T10:42:17.981Z,106.88
2023-01-15T10:43:17.975Z,112.50
2023-01-15T10:44:17.983Z,118.12
2023-01-15T10:45:17.977Z,118.12
2023-01-15T10:46:17.983Z,118.12
2023-01-15T10:47:18.968Z,123.75
2023-01-15T10:48:17.949Z,123.75
2023-01-15T10:49:17.937Z,118.12
2023-01-15T10:50:18.084Z,118.12
2023-01-15T10:51:17.928Z,112.50
2023-01-15T10:52:17.922Z,112.50
2023-01-15T10:53:17.921Z,106.88
2023-01-15T10:54:17.909Z,106.88
2023-01-15T10:55:17.901Z,101.25
2023-01-15T10:56:17.905Z,101.25
2023-01-15T10:57:17.890Z,101.25
2023-01-15T10:58:17.891Z,95.62
2023-01-15T10:59:17.885Z,95.62
2023-01-15T11:00:17.888Z,101.25
2023-01-15T11:01:17.926Z,101.25
2023-01-15T11:02:18.024Z,101.25
2023-01-15T11:03:17.931Z,106.88
2023-01-15T11:04:17.842Z,106.88
2023-01-15T11:05:17.844Z,106.88
2023-01-15T11:06:17.863Z,106.88
2023-01-15T11:07:17.830Z,112.50
2023-01-15T11:09:05.944Z,118.12
2023-01-15T11:09:19.813Z,123.75
2023-01-15T11:10:17.859Z,129.38
2023-01-15T11:11:17.913Z,129.38
2023-01-15T11:12:17.809Z,135.00
2023-01-15T11:13:17.780Z,135.00
2023-01-15T11:14:17.780Z,135.00
2023-01-15T11:15:17.774Z,135.00
2023-01-15T11:16:17.766Z,140.62
2023-01-15T11:17:17.779Z,146.25
2023-01-15T11:18:17.750Z,146.25
2023-01-15T11:19:17.999Z,151.88
2023-01-15T11:20:17.741Z,157.50
2023-01-15T11:21:17.733Z,157.50
2023-01-15T11:22:17.735Z,157.50
2023-01-15T11:23:17.734Z,163.12
2023-01-15T11:24:17.727Z,168.75
2023-01-15T11:25:18.710Z,180.00
2023-01-15T11:26:17.873Z,191.25
2023-01-15T11:27:17.688Z,202.50
2023-01-15T11:28:18.911Z,225.00
2023-01-15T11:29:17.682Z,292.50
2023-01-15T11:30:17.704Z,433.12
2023-01-15T11:31:17.709Z,759.38
2023-01-15T11:32:17.664Z,1501.88
2023-01-15T11:33:17.652Z,1743.75
2023-01-15T11:34:17.675Z,1237.50
2023-01-15T11:35:17.656Z,1091.25
2023-01-15T11:36:17.641Z,573.75
2023-01-15T11:37:17.629Z,1040.62
2023-01-15T11:38:17.627Z,759.38
2023-01-15T11:39:17.634Z,720.00
2023-01-15T11:40:17.614Z,590.62
2023-01-15T11:41:17.613Z,455.62
2023-01-15T11:42:17.624Z,438.75
2023-01-15T11:43:17.615Z,382.50
2023-01-15T11:44:17.587Z,427.50
2023-01-15T11:45:19.319Z,382.50
2023-01-15T11:46:17.584Z,489.38
2023-01-15T11:47:17.589Z,697.50
2023-01-15T11:48:17.569Z,551.25
2023-01-15T11:49:17.557Z,579.38
2023-01-15T11:50:17.537Z,551.25
2023-01-15T11:51:17.537Z,523.12
2023-01-15T11:52:17.524Z,556.88
2023-01-15T11:53:18.586Z,511.88
2023-01-15T11:54:18.522Z,433.12
2023-01-15T11:55:17.515Z,365.62
2023-01-15T11:56:17.510Z,410.62
2023-01-15T11:57:17.500Z,450.00
2023-01-15T11:58:17.493Z,371.25
2023-01-15T11:59:17.506Z,354.38
2023-01-15T12:00:17.482Z,303.75
2023-01-15T12:01:17.492Z,410.62
2023-01-15T12:02:17.466Z,523.12
2023-01-15T12:03:17.527Z,416.25
2023-01-15T12:04:17.514Z,478.12
2023-01-15T12:05:17.447Z,489.38
2023-01-15T12:06:17.425Z,691.88
2023-01-15T12:07:17.422Z,433.12
2023-01-15T12:08:17.432Z,613.12
2023-01-15T12:09:17.413Z,641.25
2023-01-15T12:10:17.446Z,849.38
2023-01-15T12:11:26.763Z,545.62
2023-01-15T12:12:19.403Z,590.62
2023-01-15T12:13:17.391Z,663.75
2023-01-15T12:14:17.383Z,641.25
2023-01-15T12:15:17.394Z,1749.38
2023-01-15T12:16:17.417Z,2244.38
2023-01-15T12:17:17.356Z,2075.62
2023-01-15T12:18:17.353Z,2221.88
2023-01-15T12:19:17.355Z,2193.75
2023-01-15T12:20:17.352Z,1929.38
2023-01-15T12:21:17.323Z,2137.50
2023-01-15T12:22:17.331Z,2188.12
2023-01-15T12:23:17.319Z,1991.25
2023-01-15T12:24:17.313Z,1569.38
2023-01-15T12:25:17.323Z,1996.88
2023-01-15T12:26:17.304Z,1614.38
2023-01-15T12:27:17.294Z,1895.62
2023-01-15T12:28:17.285Z,1068.75
2023-01-15T12:29:17.278Z,1912.50
2023-01-15T12:30:17.279Z,1411.88
2023-01-15T12:31:17.361Z,506.25
2023-01-15T12:32:17.259Z,444.38
2023-01-15T12:33:17.251Z,798.75
2023-01-15T12:34:17.255Z,438.75
2023-01-15T12:35:17.242Z,371.25
2023-01-15T12:36:17.214Z,331.88
2023-01-15T12:37:17.224Z,292.50
2023-01-15T12:38:17.224Z,253.12
2023-01-15T12:39:17.220Z,236.25
2023-01-15T12:40:17.236Z,236.25
2023-01-15T12:41:17.195Z,213.75
2023-01-15T12:42:17.182Z,180.00
2023-01-15T12:43:17.175Z,174.38
2023-01-15T12:44:17.199Z,151.88
2023-01-15T12:45:17.191Z,140.62
2023-01-15T12:46:17.205Z,140.62
2023-01-15T12:47:17.164Z,157.50
2023-01-15T12:48:17.164Z,163.12
2023-01-15T12:51:25.301Z,196.88
2023-01-15T12:52:26.397Z,180.00
2023-01-15T12:53:26.397Z,292.50
2023-01-15T12:54:26.399Z,236.25
2023-01-15T12:55:26.435Z,202.50
2023-01-15T12:56:26.373Z,208.12
2023-01-15T12:57:26.367Z,281.25
2023-01-15T12:58:26.363Z,225.00
2023-01-15T12:59:26.350Z,253.12
2023-01-15T13:00:26.377Z,281.25
2023-01-15T13:01:26.394Z,247.50
2023-01-15T13:02:26.385Z,253.12
2023-01-15T13:03:26.324Z,247.50
2023-01-15T13:04:26.323Z,236.25